createdAt,value
2018-01-10T12:18:43.112Z,44.79
2018-01-10T12:19:13.036Z,44.57
2018-01-10T12:20:10.061Z,44.20
2018-01-10T12:20:40.056Z,43.72
2018-01-10T12:21:38.083Z,42.87
2018-01-10T12:22:08.078Z,42.57
2018-01-10T12:23:05.177Z,41.34
2018-01-10T12:23:35.174Z,40.72
2018-01-10T12:24:32.208Z,40.52
2018-01-10T12:25:02.193Z,40.15
2018-01-10T12:26:00.225Z,39.96
2018-01-10T12:26:30.244Z,40.00
2018-01-10T12:27:27.227Z,40.20
2018-01-10T12:27:57.221Z,40.30
2018-01-10T12:28:54.252Z,40.42
2018-01-10T12:29:24.280Z,40.50
2018-01-10T12:30:21.287Z,40.26
2018-01-10T12:30:51.260Z,40.26
2018-01-10T12:31:21.261Z,40.31
2018-01-10T12:31:51.264Z,40.31
2018-01-10T12:32:21.264Z,40.42
2018-01-10T12:32:51.266Z,40.56
2018-01-10T12:33:21.276Z,40.58
2018-01-10T12:33:51.274Z,40.62
2018-01-10T12:34:21.274Z,40.52
2018-01-10T12:34:51.279Z,40.45
2018-01-10T12:35:21.272Z,40.30
2018-01-10T12:35:51.291Z,40.36
2018-01-10T12:36:21.274Z,40.40
2018-01-10T12:36:51.277Z,40.40
2018-01-10T12:37:21.277Z,40.52
2018-01-10T12:37:51.284Z,40.56
2018-01-10T12:38:21.278Z,40.63
2018-01-10T12:38:51.340Z,40.66
2018-01-10T12:39:21.288Z,40.76
2018-01-10T12:39:51.290Z,40.85
2018-01-10T12:40:21.291Z,40.94
2018-01-10T12:40:51.293Z,41.07
2018-01-10T12:41:21.294Z,41.14
2018-01-10T12:41:51.296Z,41.15
2018-01-10T12:42:21.298Z,41.28
2018-01-10T12:42:51.291Z,41.38
2018-01-10T12:43:21.337Z,41.42
2018-01-10T12:43:51.305Z,41.45
2018-01-10T12:44:21.293Z,41.48
2018-01-10T12:44:51.294Z,41.56
2018-01-10T12:45:21.297Z,41.55
2018-01-10T12:45:51.300Z,41.50
2018-01-10T12:46:21.296Z,41.56
2018-01-10T12:46:51.305Z,41.65
2018-01-10T12:47:21.304Z,41.71
2018-01-10T12:47:51.300Z,41.70
2018-01-10T12:48:21.307Z,41.82
2018-01-10T12:48:51.301Z,41.88
2018-01-10T12:49:21.341Z,42.01
2018-01-10T12:49:51.307Z,42.10
2018-01-10T12:50:21.311Z,42.18
2018-01-10T12:50:51.303Z,42.28
2018-01-10T12:51:21.305Z,42.32
2018-01-10T12:51:51.313Z,42.38
2018-01-10T12:52:21.313Z,42.53
2018-01-10T12:52:51.319Z,42.54
2018-01-10T12:53:21.306Z,42.66
2018-01-10T12:53:51.314Z,42.79
2018-01-10T12:54:21.308Z,42.80
2018-01-10T12:54:51.316Z,42.87
2018-01-10T12:55:21.315Z,42.97
2018-01-10T12:55:51.315Z,43.02
2018-01-10T12:56:21.317Z,43.12
2018-01-10T12:56:51.320Z,43.20
2018-01-10T12:57:21.320Z,43.28
2018-01-10T12:57:51.316Z,43.41
2018-01-10T12:58:21.314Z,43.48
2018-01-10T12:58:51.323Z,43.57
2018-01-10T12:59:21.318Z,43.62
2018-01-10T12:59:51.315Z,43.69
2018-01-10T13:00:21.322Z,43.77
2018-01-10T13:00:51.317Z,43.92
2018-01-10T13:01:21.320Z,44.13
2018-01-10T13:01:51.314Z,44.13
2018-01-10T13:02:21.318Z,44.17
2018-01-10T13:02:51.325Z,44.27
2018-01-10T13:03:21.320Z,44.37
2018-01-10T13:03:51.316Z,44.40
2018-01-10T13:04:21.331Z,44.44
2018-01-10T13:04:51.324Z,44.49
2018-01-10T13:05:21.317Z,44.48
2018-01-10T13:05:51.315Z,44.61
2018-01-10T13:06:21.319Z,44.59
2018-01-10T13:06:51.326Z,44.64
2018-01-10T13:07:21.321Z,44.72
2018-01-10T13:07:51.360Z,44.82
2018-01-10T13:08:21.327Z,44.92
2018-01-10T13:08:51.317Z,44.97
2018-01-10T13:09:21.324Z,45.10
2018-01-10T13:09:51.319Z,45.13
2018-01-10T13:10:21.326Z,45.22
2018-01-10T13:10:51.350Z,45.38
2018-01-10T13:11:21.318Z,45.39
2018-01-10T13:11:51.318Z,45.43
2018-01-10T13:12:21.328Z,45.53
2018-01-10T13:12:51.324Z,45.60
2018-01-10T13:13:21.318Z,45.66
2018-01-10T13:13:51.338Z,45.64
2018-01-10T13:14:21.331Z,45.75
2018-01-10T13:14:51.325Z,45.78
2018-01-10T13:15:21.325Z,45.82
2018-01-10T13:15:51.328Z,45.83
2018-01-10T13:16:21.321Z,45.89
2018-01-10T13:16:51.326Z,45.88
2018-01-10T13:17:21.321Z,45.94
2018-01-10T13:17:51.329Z,45.97
2018-01-10T13:18:21.322Z,46.01
2018-01-10T13:18:51.347Z,46.09
2018-01-10T13:19:21.332Z,46.28
2018-01-10T13:19:51.355Z,46.34
2018-01-10T13:20:21.328Z,46.53
2018-01-10T13:20:51.327Z,46.52
2018-01-10T13:21:21.388Z,46.64
2018-01-10T13:21:51.336Z,46.68
2018-01-10T13:22:21.328Z,46.71
2018-01-10T13:22:51.328Z,46.75
2018-01-10T13:23:21.320Z,46.79
2018-01-10T13:23:51.329Z,46.84
2018-01-10T13:24:21.320Z,46.92
2018-01-10T13:24:51.331Z,46.96
2018-01-10T13:25:21.325Z,47.07
2018-01-10T13:25:51.352Z,47.08
2018-01-10T13:26:21.354Z,47.16
2018-01-10T13:27:57.142Z,47.09
2018-01-10T13:29:33.293Z,47.24
2018-01-10T13:30:03.271Z,47.28
2018-01-10T13:31:39.923Z,47.34
2018-01-10T13:32:09.919Z,47.40
2018-01-10T13:32:39.921Z,47.47
2018-01-10T13:33:09.987Z,47.46
2018-01-10T13:33:39.974Z,47.52
2018-01-10T13:34:09.917Z,47.56
2018-01-10T13:34:39.920Z,47.64
2018-01-10T13:35:09.913Z,47.64
2018-01-10T13:35:39.934Z,47.69
2018-01-10T13:36:09.919Z,47.90
2018-01-10T13:36:39.990Z,47.95
2018-01-10T13:37:09.919Z,48.04
2018-01-10T13:37:39.961Z,48.12
2018-01-10T13:38:09.912Z,48.16
2018-01-10T13:38:39.957Z,48.15
2018-01-10T13:39:10.019Z,48.31
2018-01-10T13:39:39.918Z,48.40
2018-01-10T13:40:09.940Z,48.45
2018-01-10T13:40:39.913Z,48.52
2018-01-10T13:41:09.911Z,48.57
2018-01-10T13:41:39.918Z,48.60
2018-01-10T13:42:09.922Z,48.58
2018-01-10T13:42:39.913Z,48.63
2018-01-10T13:43:09.916Z,48.63
2018-01-10T13:43:39.967Z,48.69
2018-01-10T13:44:09.909Z,48.71
2018-01-10T13:44:39.910Z,48.75
2018-01-10T13:45:09.923Z,48.88
2018-01-10T13:45:39.917Z,48.93
2018-01-10T13:46:09.929Z,48.95
2018-01-10T13:46:39.908Z,48.97
2018-01-10T13:47:09.912Z,48.99
2018-01-10T13:47:39.909Z,49.01
2018-01-10T13:48:09.922Z,49.02
2018-01-10T13:48:39.907Z,49.10
2018-01-10T13:49:09.906Z,49.18
2018-01-10T13:49:39.914Z,49.14
2018-01-10T13:50:09.907Z,49.18
2018-01-10T13:50:39.941Z,49.16
2018-01-10T13:51:09.910Z,49.23
2018-01-10T13:51:39.906Z,49.27
2018-01-10T13:52:09.907Z,49.32
2018-01-10T13:52:39.912Z,49.34
2018-01-10T13:53:09.908Z,49.35
2018-01-10T13:53:39.905Z,49.42
2018-01-10T13:54:09.903Z,49.42
2018-01-10T13:54:39.928Z,49.45
2018-01-10T13:55:09.904Z,49.48
2018-01-10T13:55:39.909Z,49.55
2018-01-10T13:56:09.910Z,49.64
2018-01-10T13:56:39.910Z,49.64
2018-01-10T13:57:09.903Z,49.71
2018-01-10T13:57:39.909Z,49.72
2018-01-10T13:58:09.903Z,49.77
2018-01-10T13:58:39.899Z,49.82
2018-01-10T13:59:09.977Z,49.85
2018-01-10T13:59:39.903Z,49.90
2018-01-10T14:00:09.900Z,49.87
2018-01-10T14:00:39.903Z,49.89
2018-01-10T14:01:09.901Z,49.95
2018-01-10T14:01:39.899Z,50.01
2018-01-10T14:02:09.904Z,50.08
2018-01-10T14:02:40.025Z,50.12
2018-01-10T14:03:09.900Z,50.14
2018-01-10T14:03:39.921Z,50.17
2018-01-10T14:04:09.900Z,50.22
2018-01-10T14:04:39.898Z,50.18
2018-01-10T14:05:09.902Z,50.17
2018-01-10T14:05:39.910Z,50.19
2018-01-10T14:06:09.901Z,50.24
2018-01-10T14:06:39.917Z,50.26
2018-01-10T14:07:09.895Z,50.29
2018-01-10T14:07:39.918Z,50.30
2018-01-10T14:08:09.894Z,50.32
2018-01-10T14:08:39.894Z,50.31
2018-01-10T14:09:09.894Z,50.30
2018-01-10T14:09:39.899Z,50.31
2018-01-10T14:10:10.905Z,50.29
2018-01-10T14:10:39.898Z,50.35
2018-01-10T14:11:09.905Z,50.44
2018-01-10T14:11:39.896Z,50.55
2018-01-10T14:12:09.893Z,50.63
2018-01-10T14:12:39.903Z,50.67
2018-01-10T14:13:09.897Z,50.79
2018-01-10T14:13:39.889Z,50.87
2018-01-10T14:14:09.947Z,51.00
2018-01-10T14:14:39.907Z,51.07
2018-01-10T14:16:16.015Z,51.17
2018-01-10T14:16:45.787Z,51.16
2018-01-10T14:17:42.897Z,51.26
2018-01-10T14:18:12.799Z,51.28
2018-01-10T14:19:09.818Z,51.26
2018-01-10T14:19:39.816Z,51.37
2018-01-10T14:20:36.837Z,51.44
2018-01-10T14:21:06.827Z,51.42
2018-01-10T14:22:03.882Z,51.48
2018-01-10T14:22:33.872Z,51.49
2018-01-10T14:23:34.867Z,51.61
2018-01-10T14:24:04.861Z,51.65
2018-01-10T14:24:34.869Z,51.62
2018-01-10T14:25:04.861Z,51.69
2018-01-10T14:25:34.861Z,51.83
2018-01-10T14:26:05.050Z,51.96
2018-01-10T14:26:34.873Z,51.97
2018-01-10T14:27:04.861Z,51.95
2018-01-10T14:27:34.856Z,51.98
2018-01-10T14:28:04.863Z,51.99
2018-01-10T14:28:34.863Z,52.08
2018-01-10T14:29:04.886Z,52.12
2018-01-10T14:29:34.856Z,52.18
2018-01-10T14:30:04.877Z,52.22
2018-01-10T14:30:34.857Z,52.28
2018-01-10T14:31:04.855Z,52.30
2018-01-10T14:31:34.860Z,52.36
2018-01-10T14:32:04.852Z,52.37
2018-01-10T14:32:34.915Z,52.36
2018-01-10T14:33:04.851Z,52.38
2018-01-10T14:33:34.859Z,52.38
2018-01-10T14:34:04.857Z,52.39
2018-01-10T14:34:34.855Z,52.47
2018-01-10T14:35:04.856Z,52.55
2018-01-10T14:35:34.887Z,52.64
2018-01-10T14:36:04.846Z,52.66
2018-01-10T14:36:34.847Z,52.73
2018-01-10T14:37:04.852Z,52.83
2018-01-10T14:37:34.850Z,52.89
2018-01-10T14:38:04.854Z,52.91
2018-01-10T14:38:34.924Z,52.83
2018-01-10T14:39:04.843Z,52.88
2018-01-10T14:39:34.844Z,52.92
2018-01-10T14:40:04.855Z,52.96
2018-01-10T14:40:34.841Z,52.94
2018-01-10T14:41:04.845Z,53.03
2018-01-10T14:41:34.881Z,53.05
2018-01-10T14:42:04.846Z,53.07
2018-01-10T14:42:34.848Z,53.17
2018-01-10T14:43:04.838Z,53.26
2018-01-10T14:43:34.842Z,53.28
2018-01-10T14:44:04.842Z,53.29
2018-01-10T14:44:34.833Z,53.46
2018-01-10T14:45:04.835Z,53.49
2018-01-10T14:45:34.839Z,53.54
2018-01-10T14:46:04.907Z,53.59
2018-01-10T14:46:34.836Z,53.60
2018-01-10T14:47:04.830Z,53.70
2018-01-10T14:47:34.828Z,53.79
2018-01-10T14:48:04.838Z,53.78
2018-01-10T14:48:34.838Z,53.86
2018-01-10T14:49:04.908Z,53.90
2018-01-10T14:49:34.827Z,53.93
2018-01-10T14:50:04.835Z,53.95
2018-01-10T14:50:34.825Z,53.97
2018-01-10T14:51:04.834Z,53.97
2018-01-10T14:51:34.831Z,53.95
2018-01-10T14:52:04.829Z,53.97
2018-01-10T14:52:34.821Z,53.97
2018-01-10T14:53:04.851Z,54.07
2018-01-10T14:53:34.834Z,54.08
2018-01-10T14:54:04.821Z,54.07
2018-01-10T14:54:34.826Z,54.04
2018-01-10T14:55:04.851Z,54.11
2018-01-10T14:55:34.815Z,54.13
2018-01-10T14:56:04.823Z,54.10
2018-01-10T14:56:34.814Z,54.08
2018-01-10T14:57:04.810Z,54.09
2018-01-10T14:57:34.819Z,54.12
2018-01-10T14:58:04.818Z,54.15
2018-01-10T14:58:34.825Z,54.17
2018-01-10T14:59:04.862Z,54.22
2018-01-10T14:59:34.813Z,54.29
2018-01-10T15:00:04.842Z,54.41
2018-01-10T15:00:34.806Z,54.43
2018-01-10T15:01:04.820Z,54.39
2018-01-10T15:01:34.808Z,54.37
2018-01-10T15:02:04.847Z,54.41
2018-01-10T15:02:34.811Z,54.45
2018-01-10T15:03:04.801Z,54.57
2018-01-10T15:03:34.805Z,54.65
2018-01-10T15:04:04.820Z,54.63
2018-01-10T15:04:34.810Z,54.68
2018-01-10T15:05:04.801Z,54.66
2018-01-10T15:05:34.860Z,54.77
2018-01-10T15:06:04.864Z,54.82
2018-01-10T15:06:34.798Z,54.82
2018-01-10T15:07:04.800Z,54.95
2018-01-10T15:07:34.805Z,55.06
2018-01-10T15:08:04.794Z,55.05
2018-01-10T15:08:34.792Z,55.07
2018-01-10T15:09:04.807Z,55.11
2018-01-10T15:09:34.804Z,55.14
2018-01-10T15:10:04.809Z,55.17
2018-01-10T15:10:34.788Z,55.22
2018-01-10T15:11:04.819Z,55.22
2018-01-10T15:11:34.784Z,55.23
2018-01-10T15:12:04.782Z,55.24
2018-01-10T15:12:34.789Z,55.25
2018-01-10T15:13:04.795Z,55.32
2018-01-10T15:13:34.937Z,55.37
2018-01-10T15:14:04.789Z,55.36
2018-01-10T15:14:34.802Z,55.41
2018-01-10T15:15:04.794Z,55.41
2018-01-10T15:15:34.787Z,55.39
2018-01-10T15:16:04.802Z,55.42
2018-01-10T15:16:34.775Z,55.47
2018-01-10T15:17:04.779Z,55.44
2018-01-10T15:17:34.772Z,55.48
2018-01-10T15:18:04.845Z,55.50
2018-01-10T15:18:34.779Z,55.56
2018-01-10T15:19:04.778Z,55.62
2018-01-10T15:19:34.767Z,55.68
2018-01-10T15:20:04.775Z,55.73
2018-01-10T15:20:34.771Z,55.79
2018-01-10T15:21:04.772Z,55.81
2018-01-10T15:21:34.765Z,55.81
2018-01-10T15:22:04.762Z,55.77
2018-01-10T15:22:34.763Z,55.81
2018-01-10T15:23:04.767Z,55.86
2018-01-10T15:23:34.760Z,55.90
2018-01-10T15:24:04.757Z,55.85
2018-01-10T15:24:34.762Z,55.86
2018-01-10T15:25:04.774Z,55.89
2018-01-10T15:25:34.766Z,55.97
2018-01-10T15:26:04.760Z,56.04
2018-01-10T15:26:34.759Z,56.04
2018-01-10T15:27:04.771Z,56.08
2018-01-10T15:27:34.823Z,56.12
2018-01-10T15:28:04.750Z,56.12
2018-01-10T15:28:34.785Z,56.14
2018-01-10T15:29:04.752Z,56.19
2018-01-10T15:29:34.751Z,56.12
2018-01-10T15:30:04.746Z,56.15
2018-01-10T15:30:34.750Z,56.22
2018-01-10T15:31:04.742Z,56.28
2018-01-10T15:31:34.741Z,56.34
2018-01-10T15:32:04.749Z,56.35
2018-01-10T15:32:34.745Z,56.40
2018-01-10T15:33:04.780Z,56.47
2018-01-10T15:33:34.783Z,56.48
2018-01-10T15:34:04.734Z,56.51
2018-01-10T15:34:34.743Z,56.55
2018-01-10T15:35:04.739Z,56.57
2018-01-10T15:35:34.800Z,56.49
2018-01-10T15:36:04.731Z,56.50
2018-01-10T15:36:34.730Z,56.46
2018-01-10T15:37:04.729Z,56.53
2018-01-10T15:37:34.726Z,56.58
2018-01-10T15:38:04.734Z,56.59
2018-01-10T15:38:34.725Z,56.58
2018-01-10T15:39:04.724Z,56.55
2018-01-10T15:39:34.723Z,56.55
2018-01-10T15:40:04.720Z,56.60
2018-01-10T15:40:34.719Z,56.61
2018-01-10T15:41:04.764Z,56.60
2018-01-10T15:41:34.723Z,56.56
2018-01-10T15:42:04.728Z,56.63
2018-01-10T15:42:34.714Z,56.67
2018-01-10T15:43:04.719Z,56.71
2018-01-10T15:43:34.714Z,56.69
2018-01-10T15:44:04.719Z,56.70
2018-01-10T15:44:34.710Z,56.78
2018-01-10T15:45:04.716Z,56.82
2018-01-10T15:45:34.717Z,56.84
2018-01-10T15:46:04.707Z,56.90
2018-01-10T15:46:34.706Z,56.97
2018-01-10T15:47:04.703Z,57.07
2018-01-10T15:47:34.709Z,57.10
2018-01-10T15:48:04.710Z,57.13
2018-01-10T15:48:34.700Z,57.09
2018-01-10T15:49:04.774Z,57.09
2018-01-10T15:49:34.700Z,57.16
2018-01-10T15:50:04.708Z,57.15
2018-01-10T15:50:34.703Z,57.12
2018-01-10T15:51:04.701Z,57.13
2018-01-10T15:51:34.696Z,57.10
2018-01-10T15:52:04.691Z,57.11
2018-01-10T15:52:34.692Z,57.08
2018-01-10T15:54:10.781Z,56.98
2018-01-10T15:55:46.097Z,57.02
2018-01-10T15:56:16.095Z,57.03
2018-01-10T15:57:14.106Z,57.11
2018-01-10T15:57:44.145Z,57.10
2018-01-10T15:58:42.133Z,57.17
2018-01-10T15:59:12.127Z,57.21
2018-01-10T16:00:10.457Z,57.22
2018-01-10T16:00:40.159Z,57.25
2018-01-10T16:01:37.960Z,57.27
2018-01-10T16:02:07.174Z,57.30
2018-01-10T16:02:37.174Z,57.25
2018-01-10T16:03:07.166Z,57.27
2018-01-10T16:03:37.193Z,57.29
2018-01-10T16:04:07.165Z,57.24
2018-01-10T16:04:37.236Z,57.26
2018-01-10T16:05:07.166Z,57.23
2018-01-10T16:05:37.158Z,57.23
2018-01-10T16:06:07.158Z,57.24
2018-01-10T16:06:37.163Z,57.30
2018-01-10T16:07:07.156Z,57.42
2018-01-10T16:07:37.159Z,57.55
2018-01-10T16:08:07.160Z,57.60
2018-01-10T16:08:37.150Z,57.64
2018-01-10T16:09:07.149Z,57.66
2018-01-10T16:09:37.156Z,57.64
2018-01-10T16:10:07.151Z,57.59
2018-01-10T16:10:37.145Z,57.59
2018-01-10T16:11:07.151Z,57.58
2018-01-10T16:11:37.143Z,57.59
2018-01-10T16:12:07.179Z,57.61
2018-01-10T16:12:37.142Z,57.58
2018-01-10T16:13:07.139Z,57.60
2018-01-10T16:13:37.144Z,57.61
2018-01-10T16:14:07.142Z,57.61
2018-01-10T16:14:37.154Z,57.61
2018-01-10T16:15:07.136Z,57.62
2018-01-10T16:15:37.140Z,57.66
2018-01-10T16:16:07.173Z,57.60
2018-01-10T16:16:37.132Z,57.57
2018-01-10T16:17:07.134Z,57.60
2018-01-10T16:17:37.127Z,57.63
2018-01-10T16:18:07.130Z,57.63
2018-01-10T16:18:37.136Z,57.64
2018-01-10T16:19:07.125Z,57.66
2018-01-10T16:19:37.131Z,57.67
2018-01-10T16:20:07.125Z,57.60
2018-01-10T16:20:37.130Z,57.60
2018-01-10T16:21:07.156Z,57.60
2018-01-10T16:21:37.119Z,57.62
2018-01-10T16:22:07.128Z,57.70
2018-01-10T16:22:37.117Z,57.76
2018-01-10T16:23:07.120Z,57.75
2018-01-10T16:23:37.117Z,57.73
2018-01-10T16:24:07.114Z,57.76
2018-01-10T16:24:37.112Z,57.74
2018-01-10T16:25:07.111Z,57.80
2018-01-10T16:25:37.116Z,57.82
2018-01-10T16:26:07.106Z,57.86
2018-01-10T16:26:37.108Z,57.90
2018-01-10T16:27:07.106Z,57.92
2018-01-10T16:27:37.103Z,57.92
2018-01-10T16:28:07.106Z,57.91
2018-01-10T16:28:37.210Z,57.94
2018-01-10T16:29:07.113Z,57.96
2018-01-10T16:29:37.110Z,57.98
2018-01-10T16:30:07.127Z,58.01
2018-01-10T16:30:37.108Z,58.03
2018-01-10T16:31:07.096Z,58.03
2018-01-10T16:31:37.095Z,58.04
2018-01-10T16:32:07.100Z,58.10
2018-01-10T16:32:37.097Z,58.16
2018-01-10T16:33:07.094Z,58.20
2018-01-10T16:33:37.096Z,58.24
2018-01-10T16:34:07.117Z,58.30
2018-01-10T16:34:37.087Z,58.36
2018-01-10T16:35:07.096Z,58.38
2018-01-10T16:35:37.086Z,58.31
2018-01-10T16:36:07.084Z,58.36
2018-01-10T16:36:37.186Z,58.41
2018-01-10T16:37:07.080Z,58.42
2018-01-10T16:37:37.076Z,58.45
2018-01-10T16:38:07.083Z,58.41
2018-01-10T16:38:37.075Z,58.41
2018-01-10T16:39:07.144Z,58.38
2018-01-10T16:39:37.078Z,58.35
2018-01-10T16:40:07.082Z,58.42
2018-01-10T16:40:37.069Z,58.43
2018-01-10T16:41:07.067Z,58.52
2018-01-10T16:41:37.067Z,58.55
2018-01-10T16:42:07.073Z,58.55
2018-01-10T16:42:37.078Z,58.63
2018-01-10T16:43:07.074Z,58.65
2018-01-10T16:43:37.060Z,58.71
2018-01-10T16:44:07.097Z,58.67
2018-01-10T16:44:37.059Z,58.71
2018-01-10T16:45:07.117Z,58.70
2018-01-10T16:45:37.058Z,58.70
2018-01-10T16:46:07.063Z,58.70
2018-01-10T16:46:37.059Z,58.77
2018-01-10T16:47:07.058Z,58.78
2018-01-10T16:47:37.058Z,58.79
2018-01-10T16:48:07.047Z,58.85
2018-01-10T16:48:37.054Z,58.95
2018-01-10T16:49:07.044Z,59.03
2018-01-10T16:49:37.048Z,59.07
2018-01-10T16:50:07.042Z,59.11
2018-01-10T16:50:37.066Z,59.10
2018-01-10T16:51:07.072Z,59.13
2018-01-10T16:51:37.045Z,59.20
2018-01-10T16:52:07.039Z,59.28
2018-01-10T16:52:37.086Z,59.33
2018-01-10T16:53:07.035Z,59.35
2018-01-10T16:53:37.039Z,59.39
2018-01-10T16:54:07.040Z,59.43
2018-01-10T16:54:37.030Z,59.46
2018-01-10T16:55:07.036Z,59.48
2018-01-10T16:55:37.031Z,59.61
2018-01-10T16:56:07.032Z,59.68
2018-01-10T16:56:37.031Z,59.79
2018-01-10T16:57:07.021Z,59.86
2018-01-10T16:57:37.020Z,59.96
2018-01-10T16:58:07.027Z,60.02
2018-01-10T16:58:37.025Z,60.12
2018-01-10T16:59:07.027Z,60.17
2018-01-10T16:59:37.013Z,60.24
2018-01-10T17:00:07.021Z,60.30
2018-01-10T17:00:37.010Z,60.33
2018-01-10T17:01:07.009Z,60.38
2018-01-10T17:01:37.008Z,60.43
2018-01-10T17:02:07.019Z,60.49
2018-01-10T17:02:37.067Z,60.53
2018-01-10T17:03:07.009Z,60.58
2018-01-10T17:03:37.000Z,60.64
2018-01-10T17:04:07.001Z,60.71
2018-01-10T17:04:36.998Z,60.80
2018-01-10T17:05:07.004Z,60.86
2018-01-10T17:05:37.000Z,60.90
2018-01-10T17:06:06.992Z,60.92
2018-01-10T17:06:36.991Z,60.99
2018-01-10T17:07:06.996Z,61.01
2018-01-10T17:07:36.987Z,61.02
2018-01-10T17:08:06.999Z,61.03
2018-01-10T17:08:36.990Z,61.15
2018-01-10T17:09:07.001Z,61.27
2018-01-10T17:09:36.979Z,61.37
2018-01-10T17:10:06.980Z,61.38
2018-01-10T17:10:36.977Z,61.37
2018-01-10T17:11:07.046Z,61.40
2018-01-10T17:11:36.972Z,61.41
2018-01-10T17:12:06.974Z,61.53
2018-01-10T17:12:37.033Z,61.65
2018-01-10T17:13:06.970Z,61.76
2018-01-10T17:13:36.965Z,61.82
2018-01-10T17:14:06.966Z,61.85
2018-01-10T17:14:36.961Z,61.88
2018-01-10T17:15:06.994Z,61.88
2018-01-10T17:15:36.960Z,61.84
2018-01-10T17:16:06.957Z,61.85
2018-01-10T17:16:36.952Z,61.87
2018-01-10T17:17:06.954Z,61.93
2018-01-10T17:17:36.958Z,61.97
2018-01-10T17:18:06.947Z,62.08
2018-01-10T17:18:36.957Z,62.08
2018-01-10T17:19:06.951Z,62.13
2018-01-10T17:19:37.020Z,62.17
2018-01-10T17:20:06.986Z,62.22
2018-01-10T17:20:36.944Z,62.26
2018-01-10T17:21:06.937Z,62.35
2018-01-10T17:21:36.936Z,62.44
2018-01-10T17:22:06.937Z,62.49
2018-01-10T17:22:36.938Z,62.53
2018-01-10T17:23:06.928Z,62.54
2018-01-10T17:23:36.928Z,62.56
2018-01-10T17:24:06.930Z,62.53
2018-01-10T17:24:36.926Z,62.60
2018-01-10T17:25:06.925Z,62.70
2018-01-10T17:25:36.925Z,62.78
2018-01-10T17:26:06.921Z,62.80
2018-01-10T17:26:36.928Z,62.81
2018-01-10T17:27:06.922Z,62.84
2018-01-10T17:27:36.913Z,62.91
2018-01-10T17:28:06.912Z,62.94
2018-01-10T17:28:36.916Z,62.97
2018-01-10T17:29:06.946Z,62.96
2018-01-10T17:29:36.909Z,62.98
2018-01-10T17:30:06.902Z,63.01
2018-01-10T17:30:36.906Z,63.02
2018-01-10T17:31:06.900Z,63.13
2018-01-10T17:31:36.907Z,63.18
2018-01-10T17:32:06.904Z,63.22
2018-01-10T17:32:36.898Z,63.22
2018-01-10T17:33:06.898Z,63.17
2018-01-10T17:33:36.890Z,63.24
2018-01-10T17:34:06.891Z,63.30
2018-01-10T17:34:36.893Z,63.36
2018-01-10T17:35:06.882Z,63.37
2018-01-10T17:35:36.884Z,63.40
2018-01-10T17:36:06.881Z,63.47
2018-01-10T17:36:36.875Z,63.52
2018-01-10T17:37:06.878Z,63.57
2018-01-10T17:37:36.921Z,63.60
2018-01-10T17:38:06.871Z,63.64
2018-01-10T17:38:36.870Z,63.63
2018-01-10T17:39:06.871Z,63.70
2018-01-10T17:39:36.869Z,63.73
2018-01-10T17:40:06.863Z,63.77
2018-01-10T17:40:36.911Z,63.81
2018-01-10T17:41:06.859Z,63.86
2018-01-10T17:41:36.856Z,63.87
2018-01-10T17:42:06.863Z,63.95
2018-01-10T17:42:36.859Z,63.99
2018-01-10T17:43:06.855Z,63.99
2018-01-10T17:43:36.961Z,63.99
2018-01-10T17:44:06.856Z,63.96
2018-01-10T17:44:36.846Z,64.03
2018-01-10T17:45:06.844Z,64.02
2018-01-10T17:45:36.846Z,64.01
2018-01-10T17:46:06.846Z,64.05
2018-01-10T17:46:36.845Z,64.06
2018-01-10T17:47:06.837Z,64.03
2018-01-10T17:47:36.831Z,64.02
2018-01-10T17:48:06.830Z,64.07
2018-01-10T17:48:36.828Z,64.06
2018-01-10T17:49:06.824Z,64.04
2018-01-10T17:49:36.823Z,64.05
2018-01-10T17:50:06.822Z,64.03
2018-01-10T17:50:36.826Z,63.99
2018-01-10T17:51:06.822Z,63.99
2018-01-10T17:51:36.816Z,64.03
2018-01-10T17:52:06.820Z,64.05
2018-01-10T17:52:36.820Z,64.09
2018-01-10T17:53:06.811Z,64.06
2018-01-10T17:53:36.806Z,64.05
2018-01-10T17:54:06.804Z,64.08
2018-01-10T17:54:36.811Z,64.09
2018-01-10T17:55:06.808Z,64.08
2018-01-10T17:55:36.808Z,64.07
2018-01-10T17:56:06.804Z,64.05
2018-01-10T17:56:36.795Z,64.10
2018-01-10T17:57:06.799Z,64.12
2018-01-10T17:57:36.789Z,64.10
2018-01-10T17:58:06.788Z,64.15
2018-01-10T17:58:36.788Z,64.17
2018-01-10T17:59:06.786Z,64.14
2018-01-10T17:59:36.781Z,64.22
2018-01-10T18:00:06.793Z,64.25
2018-01-10T18:00:36.778Z,64.26
2018-01-10T18:01:06.779Z,64.27
2018-01-10T18:01:36.773Z,64.27
2018-01-10T18:02:06.777Z,64.24
2018-01-10T18:02:36.775Z,64.25
2018-01-10T18:03:06.774Z,64.27
2018-01-10T18:03:36.769Z,64.28
2018-01-10T18:04:06.764Z,64.35
2018-01-10T18:04:36.769Z,64.38
2018-01-10T18:05:06.765Z,64.37
2018-01-10T18:05:36.756Z,64.38
2018-01-10T18:06:06.752Z,64.40
2018-01-10T18:06:36.752Z,64.44
2018-01-10T18:07:06.756Z,64.46
2018-01-10T18:07:36.751Z,64.48
2018-01-10T18:08:06.746Z,64.51
2018-01-10T18:08:36.751Z,64.54
2018-01-10T18:09:06.744Z,64.56
2018-01-10T18:09:36.738Z,64.58
2018-01-10T18:10:06.737Z,64.54
2018-01-10T18:10:36.733Z,64.63
2018-01-10T18:11:06.738Z,64.63
2018-01-10T18:11:36.735Z,64.69
2018-01-10T18:12:06.802Z,64.70
2018-01-10T18:12:36.732Z,64.75
2018-01-10T18:13:06.723Z,64.79
2018-01-10T18:13:36.740Z,64.80
2018-01-10T18:14:06.724Z,64.81
2018-01-10T18:14:36.725Z,64.84
2018-01-10T18:15:06.716Z,64.85
2018-01-10T18:16:42.453Z,64.84
2018-01-10T18:18:18.095Z,64.86
2018-01-10T18:18:48.182Z,64.84
2018-01-10T18:19:45.108Z,64.91
2018-01-10T18:20:15.099Z,64.96
2018-01-10T18:21:12.121Z,65.05
2018-01-10T18:21:42.135Z,65.05
2018-01-10T18:22:39.151Z,65.18
2018-01-10T18:23:09.123Z,65.24
2018-01-10T18:24:06.143Z,65.30
2018-01-10T18:24:36.135Z,65.38
2018-01-10T18:25:33.160Z,65.46
2018-01-10T18:26:03.145Z,65.52
2018-01-10T18:27:00.170Z,65.75
2018-01-10T18:27:30.165Z,65.84
2018-01-10T18:28:00.157Z,65.88
2018-01-10T18:28:30.155Z,65.88
2018-01-10T18:29:00.152Z,65.93
2018-01-10T18:29:30.186Z,65.95
2018-01-10T18:30:00.159Z,65.99
2018-01-10T18:30:30.171Z,66.03
2018-01-10T18:31:00.173Z,66.06
2018-01-10T18:31:30.149Z,66.18
2018-01-10T18:32:00.136Z,66.23
2018-01-10T18:32:30.136Z,66.25
2018-01-10T18:33:00.135Z,66.27
2018-01-10T18:33:30.143Z,66.30
2018-01-10T18:34:00.134Z,66.32
2018-01-10T18:34:30.143Z,66.32
2018-01-10T18:35:00.131Z,66.34
2018-01-10T18:35:30.130Z,66.38
2018-01-10T18:36:00.118Z,66.41
2018-01-10T18:36:30.118Z,66.46
2018-01-10T18:37:00.114Z,66.47
2018-01-10T18:37:30.113Z,66.49
2018-01-10T18:38:00.112Z,66.52
2018-01-10T18:38:30.166Z,66.61
2018-01-10T18:39:00.105Z,66.65
2018-01-10T18:39:30.111Z,66.67
2018-01-10T18:40:00.114Z,66.71
2018-01-10T18:40:30.099Z,66.69
2018-01-10T18:41:00.103Z,66.75
2018-01-10T18:41:30.099Z,66.76
2018-01-10T18:42:00.104Z,66.82
2018-01-10T18:42:30.100Z,66.82
2018-01-10T18:43:00.095Z,66.89
2018-01-10T18:43:30.090Z,66.96
2018-01-10T18:44:00.090Z,67.04
2018-01-10T18:44:30.203Z,67.08
2018-01-10T18:45:00.135Z,67.11
2018-01-10T18:45:30.082Z,67.15
2018-01-10T18:46:00.073Z,67.14
2018-01-10T18:46:30.070Z,67.17
2018-01-10T18:47:00.070Z,67.19
2018-01-10T18:47:30.071Z,67.26
2018-01-10T18:48:00.126Z,67.25
2018-01-10T18:48:30.066Z,67.29
2018-01-10T18:49:00.060Z,67.31
2018-01-10T18:49:30.081Z,67.31
2018-01-10T18:50:00.059Z,67.37
2018-01-10T18:50:30.057Z,67.40
2018-01-10T18:51:00.058Z,67.44
2018-01-10T18:51:30.046Z,67.48
2018-01-10T18:52:00.054Z,67.52
2018-01-10T18:52:30.043Z,67.53
2018-01-10T18:53:00.046Z,67.56
2018-01-10T18:53:30.036Z,67.58
2018-01-10T18:54:00.045Z,67.59
2018-01-10T18:54:30.032Z,67.67
2018-01-10T18:55:00.073Z,67.73
2018-01-10T18:55:30.026Z,67.76
2018-01-10T18:56:00.048Z,67.82
2018-01-10T18:56:30.028Z,67.83
2018-01-10T18:57:00.032Z,67.86
2018-01-10T18:57:30.022Z,67.89
2018-01-10T18:58:00.038Z,67.92
2018-01-10T18:58:30.020Z,67.94
2018-01-10T18:59:00.028Z,67.98
2018-01-10T18:59:30.009Z,68.04
2018-01-10T19:00:00.009Z,68.08
2018-01-10T19:00:30.004Z,68.16
2018-01-10T19:01:00.006Z,68.16
2018-01-10T19:01:29.998Z,68.19
2018-01-10T19:01:59.995Z,68.21
2018-01-10T19:02:29.996Z,68.22
2018-01-10T19:03:00.025Z,68.23
2018-01-10T19:03:29.985Z,68.25
2018-01-10T19:04:00.063Z,68.27